sensor_id;sensor_type;location;lat;lon;timestamp;pressure;altitude;pressure_sealevel;temperature;humidity
21574;BME280;10948;48.706;9.258;2023-01-01T00:00:57;98131.66;;;8.92;100.00
21574;BME280;10948;48.706;9.258;2023-01-01T00:03:23;98131.78;;;8.72;100.00
21574;BME280;10948;48.706;9.258;2023-01-01T00:05:48;98126.16;;;8.63;100.00
21574;BME280;10948;48.706;9.258;2023-01-01T00:08:13;98129.31;;;8.51;100.00
21574;BME280;10948;48.706;9.258;2023-01-01T00:10:38;98127.16;;;8.60;100.00
21574;BME280;10948;48.706;9.258;2023-01-01T00:13:04;98137.19;;;8.68;100.00
21574;BME280;10948;48.706;9.258;2023-01-01T00:15:29;98138.63;;;8.73;100.00
21574;BME280;10948;48.706;9.258;2023-01-01T00:17:54;98144.38;;;8.80;100.00
21574;BME280;10948;48.706;9.258;2023-01-01T00:20:20;98150.56;;;8.77;100.00
21574;BME280;10948;48.706;9.258;2023-01-01T00:22:45;98135.69;;;8.62;100.00
21574;BME280;10948;48.706;9.258;2023-01-01T00:25:11;98142.44;;;8.66;100.00
21574;BME280;10948;48.706;9.258;2023-01-01T00:27:40;98138.47;;;8.95;100.00
21574;BME280;10948;48.706;9.258;2023-01-01T00:30:06;98145.50;;;8.74;100.00
21574;BME280;10948;48.706;9.258;2023-01-01T00:32:31;98136.75;;;8.58;100.00
21574;BME280;10948;48.706;9.258;2023-01-01T00:34:56;98140.75;;;8.65;100.00
21574;BME280;10948;48.706;9.258;2023-01-01T00:37:22;98148.75;;;8.61;100.00
21574;BME280;10948;48.706;9.258;2023-01-01T00:39:47;98137.16;;;8.86;100.00
21574;BME280;10948;48.706;9.258;2023-01-01T00:42:12;98132.69;;;8.71;100.00
21574;BME280;10948;48.706;9.258;2023-01-01T00:44:37;98139.34;;;8.58;100.00
21574;BME280;10948;48.706;9.258;2023-01-01T00:47:02;98133.72;;;8.67;100.00
21574;BME280;10948;48.706;9.258;2023-01-01T00:49:28;98136.97;;;8.72;100.00
21574;BME280;10948;48.706;9.258;2023-01-01T00:51:53;98118.34;;;9.17;100.00
21574;BME280;10948;48.706;9.258;2023-01-01T00:54:18;98122.56;;;9.19;100.00
21574;BME280;10948;48.706;9.258;2023-01-01T00:56:43;98122.84;;;9.13;100.00
21574;BME280;10948;48.706;9.258;2023-01-01T00:59:09;98128.38;;;9.24;100.00
21574;BME280;10948;48.706;9.258;2023-01-01T01:01:34;98124.97;;;9.22;100.00
21574;BME280;10948;48.706;9.258;2023-01-01T01:04:01;98119.03;;;9.20;100.00
21574;BME280;10948;48.706;9.258;2023-01-01T01:06:26;98106.97;;;9.36;100.00
21574;BME280;10948;48.706;9.258;2023-01-01T01:08:51;98111.88;;;9.25;100.00
21574;BME280;10948;48.706;9.258;2023-01-01T01:11:17;98104.22;;;9.39;100.00
21574;BME280;10948;48.706;9.258;2023-01-01T01:13:43;98107.09;;;9.16;100.00
21574;BME280;10948;48.706;9.258;2023-01-01T01:16:10;98113.16;;;9.17;100.00
21574;BME280;10948;48.706;9.258;2023-01-01T01:18:36;98105.88;;;9.06;100.00
21574;BME280;10948;48.706;9.258;2023-01-01T01:21:01;98115.00;;;8.96;100.00
21574;BME280;10948;48.706;9.258;2023-01-01T01:23:27;98114.16;;;9.31;100.00
21574;BME280;10948;48.706;9.258;2023-01-01T01:25:52;98115.34;;;9.07;100.00
21574;BME280;10948;48.706;9.258;2023-01-01T01:28:17;98111.06;;;8.71;100.00
21574;BME280;10948;48.706;9.258;2023-01-01T01:30:42;98116.38;;;8.86;100.00
21574;BME280;10948;48.706;9.258;2023-01-01T01:33:08;98118.53;;;8.95;100.00
21574;BME280;10948;48.706;9.258;2023-01-01T01:35:33;98121.13;;;8.95;100.00
21574;BME280;10948;48.706;9.258;2023-01-01T01:37:58;98123.00;;;9.10;100.00
21574;BME280;10948;48.706;9.258;2023-01-01T01:40:23;98127.41;;;8.91;100.00
21574;BME280;10948;48.706;9.258;2023-01-01T01:42:49;98129.94;;;8.74;100.00
21574;BME280;10948;48.706;9.258;2023-01-01T01:45:14;98129.38;;;8.49;100.00
21574;BME280;10948;48.706;9.258;2023-01-01T01:47:50;98125.00;;;8.87;100.00
21574;BME280;10948;48.706;9.258;2023-01-01T01:52:56;98119.22;;;8.63;100.00
21574;BME280;10948;48.706;9.258;2023-01-01T01:55:22;98123.09;;;8.55;100.00
21574;BME280;10948;48.706;9.258;2023-01-01T01:57:48;98117.59;;;8.42;100.00
21574;BME280;10948;48.706;9.258;2023-01-01T02:00:13;98125.59;;;8.56;100.00
21574;BME280;10948;48.706;9.258;2023-01-01T02:02:58;98133.31;;;8.39;100.00
21574;BME280;10948;48.706;9.258;2023-01-01T02:05:26;98125.84;;;8.13;100.00
21574;BME280;10948;48.706;9.258;2023-01-01T02:07:52;98126.72;;;8.32;100.00
21574;BME280;10948;48.706;9.258;2023-01-01T02:10:19;98129.09;;;8.37;100.00
21574;BME280;10948;48.706;9.258;2023-01-01T02:12:44;98131.72;;;8.17;100.00
21574;BME280;10948;48.706;9.258;2023-01-01T02:15:09;98133.88;;;8.27;100.00
21574;BME280;10948;48.706;9.258;2023-01-01T02:17:53;98133.59;;;8.33;100.00
21574;BME280;10948;48.706;9.258;2023-01-01T02:20:33;98124.06;;;8.52;100.00
21574;BME280;10948;48.706;9.258;2023-01-01T02:23:11;98121.28;;;8.38;100.00
21574;BME280;10948;48.706;9.258;2023-01-01T02:25:43;98122.22;;;8.17;100.00
21574;BME280;10948;48.706;9.258;2023-01-01T02:30:38;98128.75;;;8.26;100.00
21574;BME280;10948;48.706;9.258;2023-01-01T02:33:06;98137.25;;;8.09;100.00
21574;BME280;10948;48.706;9.258;2023-01-01T02:35:37;98138.16;;;8.08;100.00
21574;BME280;10948;48.706;9.258;2023-01-01T02:38:10;98136.06;;;8.16;100.00
21574;BME280;10948;48.706;9.258;2023-01-01T02:40:39;98130.41;;;7.88;100.00
21574;BME280;10948;48.706;9.258;2023-01-01T02:43:05;98128.53;;;8.10;100.00
21574;BME280;10948;48.706;9.258;2023-01-01T02:45:31;98126.56;;;7.58;100.00
21574;BME280;10948;48.706;9.258;2023-01-01T02:47:56;98134.06;;;7.84;100.00
21574;BME280;10948;48.706;9.258;2023-01-01T02:50:24;98140.75;;;8.08;100.00
21574;BME280;10948;48.706;9.258;2023-01-01T02:57:46;98139.59;;;7.95;100.00
21574;BME280;10948;48.706;9.258;2023-01-01T03:00:14;98136.47;;;7.69;100.00
21574;BME280;10948;48.706;9.258;2023-01-01T03:03:16;98148.94;;;7.59;100.00
21574;BME280;10948;48.706;9.258;2023-01-01T03:08:41;98152.19;;;7.64;100.00
21574;BME280;10948;48.706;9.258;2023-01-01T03:11:10;98152.97;;;7.46;100.00
21574;BME280;10948;48.706;9.258;2023-01-01T03:18:33;98144.44;;;7.44;100.00
21574;BME280;10948;48.706;9.258;2023-01-01T03:21:02;98140.00;;;7.26;100.00
21574;BME280;10948;48.706;9.258;2023-01-01T03:23:30;98142.91;;;7.79;100.00
21574;BME280;10948;48.706;9.258;2023-01-01T03:25:59;98141.94;;;7.81;100.00
21574;BME280;10948;48.706;9.258;2023-01-01T03:28:34;98145.44;;;8.00;100.00
21574;BME280;10948;48.706;9.258;2023-01-01T03:31:00;98135.22;;;8.16;100.00
21574;BME280;10948;48.706;9.258;2023-01-01T03:33:29;98142.31;;;8.12;100.00
21574;BME280;10948;48.706;9.258;2023-01-01T03:40:47;98158.69;;;7.93;100.00
21574;BME280;10948;48.706;9.258;2023-01-01T03:43:23;98162.94;;;8.14;100.00
21574;BME280;10948;48.706;9.258;2023-01-01T03:45:50;98164.00;;;8.30;100.00
21574;BME280;10948;48.706;9.258;2023-01-01T03:48:17;98170.13;;;8.84;100.00
21574;BME280;10948;48.706;9.258;2023-01-01T03:53:41;98166.94;;;8.96;100.00
21574;BME280;10948;48.706;9.258;2023-01-01T03:56:07;98166.88;;;8.98;100.00
21574;BME280;10948;48.706;9.258;2023-01-01T03:58:39;98166.34;;;9.08;100.00
21574;BME280;10948;48.706;9.258;2023-01-01T04:01:10;98173.28;;;9.26;100.00
21574;BME280;10948;48.706;9.258;2023-01-01T04:03:36;98168.31;;;9.22;100.00
21574;BME280;10948;48.706;9.258;2023-01-01T04:06:02;98175.13;;;9.41;100.00
21574;BME280;10948;48.706;9.258;2023-01-01T04:08:28;98174.41;;;9.21;100.00
21574;BME280;10948;48.706;9.258;2023-01-01T04:10:56;98173.22;;;9.09;100.00
21574;BME280;10948;48.706;9.258;2023-01-01T04:13:23;98174.19;;;9.25;100.00
21574;BME280;10948;48.706;9.258;2023-01-01T04:15:48;98169.41;;;9.35;100.00
21574;BME280;10948;48.706;9.258;2023-01-01T04:18:14;98167.16;;;9.27;100.00
21574;BME280;10948;48.706;9.258;2023-01-01T04:20:39;98162.88;;;9.26;100.00
21574;BME280;10948;48.706;9.258;2023-01-01T04:23:04;98164.91;;;9.20;100.00
21574;BME280;10948;48.706;9.258;2023-01-01T04:25:29;98164.78;;;9.23;100.00
21574;BME280;10948;48.706;9.258;2023-01-01T04:27:54;98164.22;;;9.16;100.00
21574;BME280;10948;48.706;9.258;2023-01-01T04:30:20;98169.75;;;9.10;100.00
21574;BME280;10948;48.706;9.258;2023-01-01T04:32:45;98167.22;;;9.09;100.00
21574;BME280;10948;48.706;9.258;2023-01-01T04:35:12;98169.28;;;9.19;100.00
21574;BME280;10948;48.706;9.258;2023-01-01T04:37:37;98169.34;;;9.01;100.00
21574;BME280;10948;48.706;9.258;2023-01-01T04:40:03;98164.69;;;9.07;100.00
21574;BME280;10948;48.706;9.258;2023-01-01T04:42:28;98174.59;;;9.16;100.00
21574;BME280;10948;48.706;9.258;2023-01-01T04:44:54;98167.75;;;9.15;100.00
21574;BME280;10948;48.706;9.258;2023-01-01T04:47:19;98174.31;;;9.22;100.00
21574;BME280;10948;48.706;9.258;2023-01-01T04:49:44;98179.66;;;8.84;100.00
21574;BME280;10948;48.706;9.258;2023-01-01T04:52:09;98181.81;;;8.74;100.00
21574;BME280;10948;48.706;9.258;2023-01-01T04:54:35;98173.84;;;8.60;100.00
21574;BME280;10948;48.706;9.258;2023-01-01T04:57:00;98190.53;;;8.73;100.00
21574;BME280;10948;48.706;9.258;2023-01-01T04:59:25;98187.84;;;8.93;100.00
21574;BME280;10948;48.706;9.258;2023-01-01T05:01:50;98191.19;;;8.95;100.00
21574;BME280;10948;48.706;9.258;2023-01-01T05:04:16;98186.38;;;8.51;100.00
21574;BME280;10948;48.706;9.258;2023-01-01T05:06:41;98186.47;;;8.29;100.00
21574;BME280;10948;48.706;9.258;2023-01-01T05:09:10;98193.06;;;8.36;100.00
21574;BME280;10948;48.706;9.258;2023-01-01T05:11:35;98201.78;;;8.15;100.00
21574;BME280;10948;48.706;9.258;2023-01-01T05:14:01;98200.25;;;8.11;100.00
21574;BME280;10948;48.706;9.258;2023-01-01T05:16:27;98206.06;;;7.96;100.00
21574;BME280;10948;48.706;9.258;2023-01-01T05:18:53;98206.59;;;8.24;100.00
21574;BME280;10948;48.706;9.258;2023-01-01T05:21:22;98208.13;;;7.88;100.00
21574;BME280;10948;48.706;9.258;2023-01-01T05:23:48;98212.59;;;7.85;100.00
21574;BME280;10948;48.706;9.258;2023-01-01T05:26:18;98216.41;;;7.96;100.00
21574;BME280;10948;48.706;9.258;2023-01-01T05:28:43;98212.28;;;7.92;100.00
21574;BME280;10948;48.706;9.258;2023-01-01T05:31:10;98207.72;;;7.57;100.00
21574;BME280;10948;48.706;9.258;2023-01-01T05:33:36;98216.63;;;7.50;100.00
21574;BME280;10948;48.706;9.258;2023-01-01T05:36:02;98222.44;;;7.35;100.00
21574;BME280;10948;48.706;9.258;2023-01-01T05:38:27;98227.28;;;7.23;100.00
21574;BME280;10948;48.706;9.258;2023-01-01T05:40:53;98213.28;;;7.48;100.00
21574;BME280;10948;48.706;9.258;2023-01-01T05:43:18;98221.38;;;7.19;100.00
21574;BME280;10948;48.706;9.258;2023-01-01T05:45:43;98231.72;;;7.41;100.00
21574;BME280;10948;48.706;9.258;2023-01-01T05:48:09;98218.53;;;7.67;100.00
21574;BME280;10948;48.706;9.258;2023-01-01T05:50:34;98213.28;;;7.48;100.00
21574;BME280;10948;48.706;9.258;2023-01-01T05:52:59;98225.81;;;7.37;100.00
21574;BME280;10948;48.706;9.258;2023-01-01T05:55:25;98222.34;;;7.38;100.00
21574;BME280;10948;48.706;9.258;2023-01-01T05:57:50;98230.97;;;7.37;100.00
21574;BME280;10948;48.706;9.258;2023-01-01T06:00:15;98230.16;;;7.37;100.00
21574;BME280;10948;48.706;9.258;2023-01-01T06:02:40;98238.34;;;7.26;100.00
21574;BME280;10948;48.706;9.258;2023-01-01T06:05:06;98234.72;;;7.30;100.00
21574;BME280;10948;48.706;9.258;2023-01-01T06:07:31;98242.09;;;7.41;100.00
21574;BME280;10948;48.706;9.258;2023-01-01T06:09:56;98236.53;;;7.28;100.00
21574;BME280;10948;48.706;9.258;2023-01-01T06:12:21;98238.34;;;7.26;100.00
21574;BME280;10948;48.706;9.258;2023-01-01T06:14:47;98235.31;;;7.58;100.00
21574;BME280;10948;48.706;9.258;2023-01-01T06:17:12;98235.56;;;7.09;100.00
21574;BME280;10948;48.706;9.258;2023-01-01T06:19:37;98239.91;;;7.09;100.00
21574;BME280;10948;48.706;9.258;2023-01-01T06:22:02;98241.09;;;7.00;100.00
21574;BME280;10948;48.706;9.258;2023-01-01T06:24:27;98243.63;;;7.02;100.00
21574;BME280;10948;48.706;9.258;2023-01-01T06:26:53;98244.47;;;7.02;100.00
21574;BME280;10948;48.706;9.258;2023-01-01T06:29:18;98241.47;;;6.91;100.00
21574;BME280;10948;48.706;9.258;2023-01-01T06:31:43;98251.53;;;6.97;100.00
21574;BME280;10948;48.706;9.258;2023-01-01T06:34:08;98243.59;;;6.80;100.00
21574;BME280;10948;48.706;9.258;2023-01-01T06:36:33;98251.34;;;6.80;100.00
21574;BME280;10948;48.706;9.258;2023-01-01T06:38:59;98251.44;;;7.00;100.00
21574;BME280;10948;48.706;9.258;2023-01-01T06:41:25;98240.63;;;7.12;100.00
21574;BME280;10948;48.706;9.258;2023-01-01T06:43:50;98252.22;;;7.02;100.00
21574;BME280;10948;48.706;9.258;2023-01-01T06:48:41;98245.69;;;7.15;100.00
21574;BME280;10948;48.706;9.258;2023-01-01T06:51:07;98247.94;;;7.24;100.00
21574;BME280;10948;48.706;9.258;2023-01-01T06:53:33;98248.81;;;7.23;100.00
21574;BME280;10948;48.706;9.258;2023-01-01T06:55:58;98253.56;;;7.12;100.00
21574;BME280;10948;48.706;9.258;2023-01-01T06:58:23;98252.94;;;7.06;100.00
21574;BME280;10948;48.706;9.258;2023-01-01T07:00:49;98252.19;;;7.04;100.00
21574;BME280;10948;48.706;9.258;2023-01-01T07:03:14;98252.53;;;7.16;100.00
21574;BME280;10948;48.706;9.258;2023-01-01T07:05:39;98258.75;;;7.12;100.00
21574;BME280;10948;48.706;9.258;2023-01-01T07:08:04;98250.00;;;7.36;100.00
21574;BME280;10948;48.706;9.258;2023-01-01T07:10:30;98253.81;;;7.28;100.00
21574;BME280;10948;48.706;9.258;2023-01-01T07:12:55;98255.81;;;7.43;100.00
21574;BME280;10948;48.706;9.258;2023-01-01T07:15:20;98254.41;;;7.56;100.00
21574;BME280;10948;48.706;9.258;2023-01-01T07:17:45;98253.34;;;7.81;100.00
21574;BME280;10948;48.706;9.258;2023-01-01T07:20:11;98254.41;;;7.97;100.00
21574;BME280;10948;48.706;9.258;2023-01-01T07:22:36;98255.97;;;7.80;100.00
21574;BME280;10948;48.706;9.258;2023-01-01T07:25:02;98264.66;;;7.79;100.00
21574;BME280;10948;48.706;9.258;2023-01-01T07:27:27;98258.78;;;7.75;100.00
21574;BME280;10948;48.706;9.258;2023-01-01T07:29:52;98262.59;;;7.87;100.00
21574;BME280;10948;48.706;9.258;2023-01-01T07:32:18;98267.06;;;7.83;100.00
21574;BME280;10948;48.706;9.258;2023-01-01T07:34:43;98272.41;;;8.00;100.00
21574;BME280;10948;48.706;9.258;2023-01-01T07:37:08;98272.66;;;8.14;100.00
21574;BME280;10948;48.706;9.258;2023-01-01T07:39:33;98257.63;;;8.42;100.00
21574;BME280;10948;48.706;9.258;2023-01-01T07:41:58;98262.28;;;8.54;100.00
21574;BME280;10948;48.706;9.258;2023-01-01T07:44:24;98259.91;;;9.78;100.00
21574;BME280;10948;48.706;9.258;2023-01-01T07:46:49;98262.78;;;9.72;100.00
21574;BME280;10948;48.706;9.258;2023-01-01T07:49:14;98269.78;;;9.71;100.00
21574;BME280;10948;48.706;9.258;2023-01-01T07:51:39;98271.53;;;9.17;100.00
21574;BME280;10948;48.706;9.258;2023-01-01T07:54:04;98273.81;;;8.86;100.00
21574;BME280;10948;48.706;9.258;2023-01-01T07:56:30;98267.47;;;9.47;100.00
21574;BME280;10948;48.706;9.258;2023-01-01T07:58:55;98275.41;;;10.15;100.00
21574;BME280;10948;48.706;9.258;2023-01-01T08:01:20;98269.94;;;10.53;100.00
21574;BME280;10948;48.706;9.258;2023-01-01T08:03:49;98274.81;;;10.59;100.00
21574;BME280;10948;48.706;9.258;2023-01-01T08:06:14;98287.47;;;10.82;100.00
21574;BME280;10948;48.706;9.258;2023-01-01T08:08:39;98288.94;;;10.21;100.00
21574;BME280;10948;48.706;9.258;2023-01-01T08:11:05;98295.75;;;9.88;100.00
21574;BME280;10948;48.706;9.258;2023-01-01T08:13:30;98304.44;;;9.35;100.00
21574;BME280;10948;48.706;9.258;2023-01-01T08:15:56;98300.44;;;9.28;100.00
21574;BME280;10948;48.706;9.258;2023-01-01T08:18:21;98321.22;;;9.46;100.00
21574;BME280;10948;48.706;9.258;2023-01-01T08:20:47;98309.63;;;9.53;100.00
21574;BME280;10948;48.706;9.258;2023-01-01T08:23:12;98312.84;;;9.58;100.00
21574;BME280;10948;48.706;9.258;2023-01-01T08:25:37;98322.22;;;9.79;100.00
21574;BME280;10948;48.706;9.258;2023-01-01T08:28:02;98315.00;;;10.20;100.00
21574;BME280;10948;48.706;9.258;2023-01-01T08:30:28;98324.06;;;9.77;100.00
21574;BME280;10948;48.706;9.258;2023-01-01T08:32:53;98328.03;;;10.01;100.00
21574;BME280;10948;48.706;9.258;2023-01-01T08:35:18;98327.81;;;10.24;100.00
21574;BME280;10948;48.706;9.258;2023-01-01T08:37:43;98329.31;;;10.28;100.00
21574;BME280;10948;48.706;9.258;2023-01-01T08:40:09;98329.78;;;10.36;100.00
21574;BME280;10948;48.706;9.258;2023-01-01T08:42:35;98338.66;;;10.49;100.00
21574;BME280;10948;48.706;9.258;2023-01-01T08:45:00;98334.69;;;10.59;100.00
21574;BME280;10948;48.706;9.258;2023-01-01T08:47:25;98329.72;;;11.35;100.00
21574;BME280;10948;48.706;9.258;2023-01-01T08:49:51;98314.72;;;13.31;100.00
21574;BME280;10948;48.706;9.258;2023-01-01T08:52:17;98312.22;;;14.23;100.00
21574;BME280;10948;48.706;9.258;2023-01-01T08:54:43;98321.38;;;13.63;100.00
21574;BME280;10948;48.706;9.258;2023-01-01T08:57:08;98325.78;;;12.35;100.00
21574;BME280;10948;48.706;9.258;2023-01-01T08:59:34;98325.56;;;12.97;100.00
21574;BME280;10948;48.706;9.258;2023-01-01T09:01:59;98321.69;;;13.44;100.00
21574;BME280;10948;48.706;9.258;2023-01-01T09:04:24;98329.25;;;13.89;100.00
21574;BME280;10948;48.706;9.258;2023-01-01T09:06:50;98321.88;;;13.82;100.00
21574;BME280;10948;48.706;9.258;2023-01-01T09:09:15;98325.50;;;13.53;100.00
21574;BME280;10948;48.706;9.258;2023-01-01T09:11:48;98330.13;;;13.62;100.00
21574;BME280;10948;48.706;9.258;2023-01-01T09:14:13;98322.19;;;14.04;100.00
21574;BME280;10948;48.706;9.258;2023-01-01T09:16:39;98326.34;;;14.72;100.00
21574;BME280;10948;48.706;9.258;2023-01-01T09:19:04;98314.09;;;16.18;94.08
21574;BME280;10948;48.706;9.258;2023-01-01T09:21:29;98316.09;;;14.69;97.60
21574;BME280;10948;48.706;9.258;2023-01-01T09:23:54;98309.69;;;14.60;100.00
21574;BME280;10948;48.706;9.258;2023-01-01T09:26:19;98310.19;;;14.53;100.00
21574;BME280;10948;48.706;9.258;2023-01-01T09:28:45;98317.59;;;14.07;100.00
21574;BME280;10948;48.706;9.258;2023-01-01T09:31:10;98322.16;;;14.82;96.43
21574;BME280;10948;48.706;9.258;2023-01-01T09:33:35;98321.94;;;14.97;95.20
21574;BME280;10948;48.706;9.258;2023-01-01T09:38:47;98302.47;;;15.86;89.01
21574;BME280;10948;48.706;9.258;2023-01-01T09:46:26;98320.53;;;15.90;89.79
21574;BME280;10948;48.706;9.258;2023-01-01T09:48:58;98315.25;;;16.03;86.99
21574;BME280;10948;48.706;9.258;2023-01-01T09:51:25;98317.88;;;16.03;89.05
21574;BME280;10948;48.706;9.258;2023-01-01T09:53:54;98320.22;;;16.87;87.36
21574;BME280;10948;48.706;9.258;2023-01-01T09:56:29;98323.25;;;17.37;83.44
21574;BME280;10948;48.706;9.258;2023-01-01T09:58:57;98325.78;;;18.14;77.32
21574;BME280;10948;48.706;9.258;2023-01-01T10:03:57;98325.03;;;18.12;76.74
21574;BME280;10948;48.706;9.258;2023-01-01T10:06:31;98326.66;;;18.04;79.74
21574;BME280;10948;48.706;9.258;2023-01-01T10:09:04;98325.44;;;18.39;77.49
21574;BME280;10948;48.706;9.258;2023-01-01T10:14:15;98318.66;;;18.57;71.55
21574;BME280;10948;48.706;9.258;2023-01-01T10:16:42;98309.09;;;18.56;70.32
21574;BME280;10948;48.706;9.258;2023-01-01T10:19:19;98320.09;;;19.32;69.25
21574;BME280;10948;48.706;9.258;2023-01-01T10:21:46;98316.16;;;18.76;73.52
21574;BME280;10948;48.706;9.258;2023-01-01T10:24:24;98321.44;;;18.76;73.85
21574;BME280;10948;48.706;9.258;2023-01-01T10:26:52;98316.91;;;19.68;68.85
21574;BME280;10948;48.706;9.258;2023-01-01T10:29:20;98317.19;;;19.75;65.57
21574;BME280;10948;48.706;9.258;2023-01-01T10:31:47;98325.16;;;18.94;67.84
21574;BME280;10948;48.706;9.258;2023-01-01T10:34:21;98326.03;;;19.04;70.37
21574;BME280;10948;48.706;9.258;2023-01-01T10:36:48;98319.78;;;19.05;67.89
21574;BME280;10948;48.706;9.258;2023-01-01T10:39:16;98315.91;;;19.20;68.49
21574;BME280;10948;48.706;9.258;2023-01-01T10:41:45;98314.06;;;19.41;66.83
21574;BME280;10948;48.706;9.258;2023-01-01T10:44:11;98307.53;;;19.94;63.49
21574;BME280;10948;48.706;9.258;2023-01-01T10:46:40;98313.16;;;20.20;64.28
21574;BME280;10948;48.706;9.258;2023-01-01T10:51:34;98313.59;;;19.76;68.74
21574;BME280;10948;48.706;9.258;2023-01-01T10:54:01;98310.94;;;20.34;66.25
21574;BME280;10948;48.706;9.258;2023-01-01T10:56:27;98305.91;;;20.50;62.81
21574;BME280;10948;48.706;9.258;2023-01-01T10:59:02;98301.84;;;20.84;59.84
21574;BME280;10948;48.706;9.258;2023-01-01T11:01:31;98305.47;;;20.93;59.26
21574;BME280;10948;48.706;9.258;2023-01-01T11:08:58;98302.13;;;20.81;60.27
21574;BME280;10948;48.706;9.258;2023-01-01T11:11:28;98304.13;;;20.32;60.08
21574;BME280;10948;48.706;9.258;2023-01-01T11:13:55;98297.44;;;20.37;59.54
21574;BME280;10948;48.706;9.258;2023-01-01T11:16:21;98299.81;;;21.24;56.20
21574;BME280;10948;48.706;9.258;2023-01-01T11:18:47;98293.53;;;20.60;57.41
21574;BME280;10948;48.706;9.258;2023-01-01T11:21:18;98295.59;;;21.58;57.35
21574;BME280;10948;48.706;9.258;2023-01-01T11:23:43;98290.25;;;21.41;56.52
21574;BME280;10948;48.706;9.258;2023-01-01T11:28:37;98296.13;;;20.98;56.84
21574;BME280;10948;48.706;9.258;2023-01-01T11:31:03;98280.19;;;21.44;56.78
21574;BME280;10948;48.706;9.258;2023-01-01T11:33:30;98276.13;;;21.86;56.86
21574;BME280;10948;48.706;9.258;2023-01-01T11:35:56;98279.19;;;21.18;58.48
21574;BME280;10948;48.706;9.258;2023-01-01T11:38:22;98268.13;;;20.96;59.05
21574;BME280;10948;48.706;9.258;2023-01-01T11:40:49;98264.53;;;21.33;58.68
21574;BME280;10948;48.706;9.258;2023-01-01T11:43:19;98250.38;;;20.31;59.40
21574;BME280;10948;48.706;9.258;2023-01-01T11:45:46;98251.06;;;19.95;58.23
21574;BME280;10948;48.706;9.258;2023-01-01T11:48:13;98245.34;;;20.66;58.05
21574;BME280;10948;48.706;9.258;2023-01-01T11:50:41;98238.28;;;20.38;58.38
21574;BME280;10948;48.706;9.258;2023-01-01T12:00:53;98218.13;;;20.93;56.96
21574;BME280;10948;48.706;9.258;2023-01-01T12:03:35;98217.94;;;21.40;56.69
21574;BME280;10948;48.706;9.258;2023-01-01T12:06:07;98220.06;;;21.00;53.97
21574;BME280;10948;48.706;9.258;2023-01-01T12:08:36;98208.00;;;21.42;54.42
21574;BME280;10948;48.706;9.258;2023-01-01T12:14:34;98218.50;;;21.07;55.65
21574;BME280;10948;48.706;9.258;2023-01-01T12:21:24;98207.78;;;20.99;55.00
21574;BME280;10948;48.706;9.258;2023-01-01T12:23:49;98198.88;;;20.45;56.31
21574;BME280;10948;48.706;9.258;2023-01-01T12:26:22;98201.28;;;20.84;55.30
21574;BME280;10948;48.706;9.258;2023-01-01T12:29:35;98191.44;;;21.40;53.86
21574;BME280;10948;48.706;9.258;2023-01-01T12:37:03;98193.31;;;20.38;58.82
21574;BME280;10948;48.706;9.258;2023-01-01T12:52:26;98176.53;;;20.20;59.54
21574;BME280;10948;48.706;9.258;2023-01-01T12:57:33;98163.13;;;20.31;61.07
21574;BME280;10948;48.706;9.258;2023-01-01T13:00:00;98167.03;;;20.46;60.56
21574;BME280;10948;48.706;9.258;2023-01-01T13:02:31;98168.88;;;20.73;61.15
21574;BME280;10948;48.706;9.258;2023-01-01T13:05:12;98163.69;;;21.17;59.73
21574;BME280;10948;48.706;9.258;2023-01-01T13:07:40;98161.25;;;21.06;59.12
21574;BME280;10948;48.706;9.258;2023-01-01T13:10:26;98173.59;;;21.15;60.35
21574;BME280;10948;48.706;9.258;2023-01-01T13:12:52;98178.75;;;20.90;59.35
21574;BME280;10948;48.706;9.258;2023-01-01T13:18:04;98173.13;;;20.47;57.24
21574;BME280;10948;48.706;9.258;2023-01-01T13:20:29;98173.22;;;20.64;58.11
21574;BME280;10948;48.706;9.258;2023-01-01T13:22:55;98177.84;;;20.53;57.99
21574;BME280;10948;48.706;9.258;2023-01-01T13:25:22;98171.59;;;20.44;58.08
21574;BME280;10948;48.706;9.258;2023-01-01T13:35:36;98170.38;;;19.53;61.52
21574;BME280;10948;48.706;9.258;2023-01-01T13:38:01;98161.88;;;19.01;65.56
21574;BME280;10948;48.706;9.258;2023-01-01T13:40:28;98164.59;;;18.80;65.84
21574;BME280;10948;48.706;9.258;2023-01-01T13:45:26;98166.44;;;18.18;73.39
21574;BME280;10948;48.706;9.258;2023-01-01T13:53:09;98156.88;;;18.17;68.68
21574;BME280;10948;48.706;9.258;2023-01-01T14:03:23;98145.16;;;17.90;70.14
21574;BME280;10948;48.706;9.258;2023-01-01T14:05:55;98136.25;;;17.81;70.66
21574;BME280;10948;48.706;9.258;2023-01-01T14:10:56;98129.47;;;17.47;75.88
21574;BME280;10948;48.706;9.258;2023-01-01T14:13:22;98133.50;;;17.51;78.35
21574;BME280;10948;48.706;9.258;2023-01-01T14:15:53;98138.53;;;17.01;82.73
21574;BME280;10948;48.706;9.258;2023-01-01T14:18:19;98137.81;;;16.99;85.65
21574;BME280;10948;48.706;9.258;2023-01-01T14:20:49;98136.50;;;16.93;87.07
21574;BME280;10948;48.706;9.258;2023-01-01T14:23:19;98134.13;;;17.02;85.40
21574;BME280;10948;48.706;9.258;2023-01-01T14:25:47;98135.56;;;16.95;83.38
21574;BME280;10948;48.706;9.258;2023-01-01T14:28:14;98133.84;;;17.04;81.40
21574;BME280;10948;48.706;9.258;2023-01-01T14:30:42;98136.25;;;16.97;82.15
21574;BME280;10948;48.706;9.258;2023-01-01T14:33:18;98137.72;;;16.90;84.14
21574;BME280;10948;48.706;9.258;2023-01-01T14:35:55;98151.56;;;16.81;84.35
21574;BME280;10948;48.706;9.258;2023-01-01T14:38:22;98160.06;;;16.73;87.10
21574;BME280;10948;48.706;9.258;2023-01-01T14:40:48;98154.56;;;16.54;90.30
21574;BME280;10948;48.706;9.258;2023-01-01T14:43:13;98158.97;;;16.54;90.85
21574;BME280;10948;48.706;9.258;2023-01-01T14:45:40;98146.78;;;16.53;90.75
21574;BME280;10948;48.706;9.258;2023-01-01T14:48:10;98143.41;;;16.29;92.76
21574;BME280;10948;48.706;9.258;2023-01-01T14:50:41;98143.69;;;15.91;96.35
21574;BME280;10948;48.706;9.258;2023-01-01T14:53:12;98151.25;;;15.96;97.27
21574;BME280;10948;48.706;9.258;2023-01-01T14:55:39;98145.69;;;16.33;91.06